Sultan Atasoy — TCYG9 — position and weather

sailwx.info

Track history (hours):
 
Tides and Currents Weather Stations Pressure Air Temp Water Temp Dewpoint Dewpoint Depression Visibility Wind Speed Wind Dir Waves Ship Positions

Sultan Atasoy

Last reported at 2016-Sep-28 12:12 UTC. Time now 2016-Oct-01 18:57 UTC.
Position N 36°24' W 008°35'.

Length 109 m; draft 6.5 m.

Type: Ship. MMSI: 271040963.

Date/timePositionNaut miles runAvg speedWind from/ knotsBaromVisibWave heightAir tempDewpointWater temp
2016-Sep-28 12:12N 36°24' W 008°35'3710.2
2016-Sep-28 08:33N 36°36' W 009°19'5310.6
2016-Sep-28 03:34N 37°25' W 009°44'1110.6
2016-Sep-28 02:33N 37°36' W 009°47'1110.8
2016-Sep-28 01:33N 37°46' W 009°50'2210.9
2016-Sep-27 23:33N 38°07' W 009°56'4611.5
2016-Sep-27 19:33N 38°53' W 010°06'  
2016-Sep-23 06:33N 39°24' W 009°44'2311.4
2016-Sep-23 04:33N 39°01' W 009°48'1211.5
2016-Sep-23 03:33N 38°49' W 009°50'1111.4
2016-Sep-23 02:33N 38°38' W 009°48'1111.1
2016-Sep-23 01:34N 38°27' W 009°44'1110.8
2016-Sep-23 00:34N 38°17' W 009°42'1111.0
2016-Sep-22 23:33N 38°06' W 009°39'3210.6
2016-Sep-22 20:33N 37°35' W 009°30'21010.3
2016-Sep-22 00:07N 35°58' W 005°38'5 9.1
2016-Sep-21 23:34N 35°59' W 005°32'8 8.4
2016-Sep-21 22:33N 36°01' W 005°22'13610.4
2016-Sep-21 09:33N 36°23' W 002°36'1211.3
2016-Sep-21 08:32N 36°25' W 002°22'3311.2
2016-Sep-21 05:33N 36°43' W 001°47'  
Track history (hours):
 
Tides and Currents Weather Stations Pressure Air Temp Water Temp Dewpoint Dewpoint Depression Visibility Wind Speed Wind Dir Waves Ship Positions

Sultan Atasoy

Last reported at 2016-Sep-28 12:12 UTC. Time now 2016-Oct-01 18:57 UTC.
Position N 36°24' W 008°35'.

Length 109 m; draft 6.5 m.

Type: Ship. MMSI: 271040963.

Date/timePositionNaut miles runAvg speedWind from/ knotsBaromVisibWave heightAir tempDewpointWater temp
2016-Sep-28 12:12N 36°24' W 008°35'3710.2
2016-Sep-28 08:33N 36°36' W 009°19'5310.6
2016-Sep-28 03:34N 37°25' W 009°44'1110.6
2016-Sep-28 02:33N 37°36' W 009°47'1110.8
2016-Sep-28 01:33N 37°46' W 009°50'2210.9
2016-Sep-27 23:33N 38°07' W 009°56'4611.5
2016-Sep-27 19:33N 38°53' W 010°06'  
2016-Sep-23 06:33N 39°24' W 009°44'2311.4
2016-Sep-23 04:33N 39°01' W 009°48'1211.5
2016-Sep-23 03:33N 38°49' W 009°50'1111.4
2016-Sep-23 02:33N 38°38' W 009°48'1111.1
2016-Sep-23 01:34N 38°27' W 009°44'1110.8
2016-Sep-23 00:34N 38°17' W 009°42'1111.0
2016-Sep-22 23:33N 38°06' W 009°39'3210.6
2016-Sep-22 20:33N 37°35' W 009°30'21010.3
2016-Sep-22 00:07N 35°58' W 005°38'5 9.1
2016-Sep-21 23:34N 35°59' W 005°32'8 8.4
2016-Sep-21 22:33N 36°01' W 005°22'13610.4
2016-Sep-21 09:33N 36°23' W 002°36'1211.3
2016-Sep-21 08:32N 36°25' W 002°22'3311.2
2016-Sep-21 05:33N 36°43' W 001°47'  

Dump ship's entire track history